createdAt,value
2022-12-03T00:00:19.679Z,9.13
2022-12-03T00:02:47.448Z,9.07
2022-12-03T00:05:16.711Z,8.65
2022-12-03T00:07:44.406Z,8.45
2022-12-03T00:10:12.983Z,10.30
2022-12-03T00:12:40.728Z,8.98
2022-12-03T00:15:09.850Z,9.73
2022-12-03T00:17:37.642Z,8.18
2022-12-03T00:20:06.228Z,8.50
2022-12-03T00:22:35.231Z,9.10
2022-12-03T00:25:02.869Z,9.60
2022-12-03T00:27:30.476Z,8.85
2022-12-03T00:29:58.106Z,9.40
2022-12-03T00:32:25.768Z,8.27
2022-12-03T00:34:53.725Z,9.65
2022-12-03T00:37:21.628Z,7.82
2022-12-03T00:39:50.628Z,8.90
2022-12-03T00:42:18.308Z,9.00
2022-12-03T00:44:46.016Z,10.00
2022-12-03T00:47:13.888Z,9.45
2022-12-03T00:49:41.760Z,8.93
2022-12-03T00:52:09.371Z,9.27
2022-12-03T00:54:36.997Z,8.82
2022-12-03T00:57:06.053Z,8.30
2022-12-03T00:59:33.739Z,9.63
2022-12-03T01:02:01.408Z,9.18
2022-12-03T01:04:29.126Z,8.93
2022-12-03T01:06:56.883Z,9.13
2022-12-03T01:09:24.571Z,9.25
2022-12-03T01:11:52.212Z,9.10
2022-12-03T01:14:21.584Z,8.50
2022-12-03T01:16:49.475Z,8.80
2022-12-03T01:19:18.328Z,8.93
2022-12-03T01:21:49.438Z,8.88
2022-12-03T01:24:17.145Z,8.10
2022-12-03T01:26:44.776Z,8.57
2022-12-03T01:29:12.476Z,8.57
2022-12-03T01:31:59.210Z,10.02
2022-12-03T01:34:26.924Z,8.43
2022-12-03T01:36:54.639Z,8.65
2022-12-03T01:39:22.319Z,9.85
2022-12-03T01:41:52.652Z,8.48
2022-12-03T01:44:23.560Z,9.73
2022-12-03T01:46:55.162Z,9.43
2022-12-03T01:49:27.184Z,8.27
2022-12-03T01:51:56.019Z,8.55
2022-12-03T01:54:28.580Z,9.02
2022-12-03T01:56:56.618Z,9.15
2022-12-03T01:59:33.821Z,9.20
2022-12-03T02:02:12.494Z,9.38
2022-12-03T02:04:40.412Z,9.38
2022-12-03T02:07:19.728Z,9.48
2022-12-03T02:09:47.551Z,9.85
2022-12-03T02:12:18.604Z,10.40
2022-12-03T02:14:47.021Z,8.88
2022-12-03T02:17:16.807Z,9.90
2022-12-03T02:19:44.535Z,8.77
2022-12-03T02:22:23.994Z,9.65
2022-12-03T02:24:59.951Z,9.07
2022-12-03T02:27:29.772Z,9.38
2022-12-03T02:29:57.716Z,9.77
2022-12-03T02:32:25.375Z,9.10
2022-12-03T02:34:53.243Z,9.60
2022-12-03T02:37:24.983Z,9.80
2022-12-03T02:39:55.733Z,9.57
2022-12-03T02:42:35.990Z,9.85
2022-12-03T02:45:09.790Z,8.20
2022-12-03T02:47:42.384Z,8.90
2022-12-03T02:50:12.410Z,8.95
2022-12-03T02:52:41.172Z,8.77
2022-12-03T02:55:10.664Z,7.90
2022-12-03T02:57:39.685Z,10.25
2022-12-03T03:00:10.835Z,9.27
2022-12-03T03:02:40.355Z,8.35
2022-12-03T03:05:11.508Z,9.55
2022-12-03T03:07:40.684Z,8.90
2022-12-03T03:10:12.638Z,9.18
2022-12-03T03:12:40.417Z,9.60
2022-12-03T03:15:12.196Z,8.70
2022-12-03T03:17:40.378Z,8.50
2022-12-03T03:20:10.171Z,9.05
2022-12-03T03:22:40.456Z,9.35
2022-12-03T03:25:11.828Z,10.32
2022-12-03T03:27:41.218Z,9.63
2022-12-03T03:30:12.012Z,9.93
2022-12-03T03:32:41.020Z,9.45
2022-12-03T03:35:09.999Z,9.23
2022-12-03T03:37:37.827Z,9.57
2022-12-03T03:40:06.580Z,9.18
2022-12-03T03:42:34.628Z,9.63
2022-12-03T03:45:02.511Z,8.85
2022-12-03T03:47:31.567Z,9.73
2022-12-03T03:49:59.386Z,9.77
2022-12-03T03:52:27.176Z,10.38
2022-12-03T03:54:55.043Z,9.63
2022-12-03T03:57:22.789Z,8.98
2022-12-03T03:59:50.507Z,9.73
2022-12-03T04:02:20.705Z,10.35
2022-12-03T04:04:49.854Z,9.68
2022-12-03T04:07:18.021Z,9.23
2022-12-03T04:09:45.743Z,8.98
2022-12-03T04:12:31.826Z,9.90
2022-12-03T04:15:00.001Z,10.80
2022-12-03T04:17:27.786Z,10.43
2022-12-03T04:19:56.723Z,10.02
2022-12-03T04:22:41.586Z,10.32
2022-12-03T04:25:28.202Z,9.27
2022-12-03T04:28:13.929Z,10.95
2022-12-03T04:30:41.638Z,10.60
2022-12-03T04:33:26.795Z,10.38
2022-12-03T04:35:55.828Z,10.88
2022-12-03T04:38:23.496Z,10.70
2022-12-03T04:41:01.502Z,9.93
2022-12-03T04:43:29.932Z,11.63
2022-12-03T04:48:25.608Z,9.50
2022-12-03T04:50:53.334Z,10.70
2022-12-03T04:53:22.283Z,10.48
2022-12-03T04:55:49.884Z,10.25
2022-12-03T04:58:17.524Z,9.73
2022-12-03T05:00:45.116Z,10.25
2022-12-03T05:03:12.756Z,10.88
2022-12-03T05:05:40.415Z,9.95
2022-12-03T05:08:08.258Z,10.85
2022-12-03T05:10:37.327Z,10.82
2022-12-03T05:13:04.997Z,8.93
2022-12-03T05:15:32.643Z,11.02
2022-12-03T05:18:00.280Z,11.73
2022-12-03T05:20:46.959Z,11.52
2022-12-03T05:23:19.151Z,12.15
2022-12-03T05:25:48.338Z,12.48
2022-12-03T05:28:16.137Z,11.93
2022-12-03T05:30:43.990Z,12.65
2022-12-03T05:33:11.729Z,11.27
2022-12-03T05:35:39.367Z,12.77
2022-12-03T05:38:07.036Z,11.68
2022-12-03T05:40:34.725Z,12.32
2022-12-03T05:43:02.795Z,12.82
2022-12-03T05:45:32.706Z,11.45
2022-12-03T05:48:01.321Z,12.18
2022-12-03T05:50:31.150Z,12.25
2022-12-03T05:52:58.969Z,11.82
2022-12-03T05:55:26.784Z,13.35
2022-12-03T05:57:54.464Z,11.48
2022-12-03T06:00:25.587Z,12.35
2022-12-03T06:02:54.151Z,12.85
2022-12-03T06:05:23.265Z,13.13
2022-12-03T06:07:53.082Z,12.23
2022-12-03T06:10:22.832Z,13.75
2022-12-03T06:12:50.951Z,11.68
2022-12-03T06:15:19.270Z,11.63
2022-12-03T06:17:48.737Z,12.63
2022-12-03T06:20:18.467Z,12.45
2022-12-03T06:22:46.508Z,11.85
2022-12-03T06:25:14.520Z,11.85
2022-12-03T06:27:42.150Z,12.80
2022-12-03T06:30:12.178Z,12.40
2022-12-03T06:32:39.818Z,10.75
2022-12-03T06:35:09.873Z,12.02
2022-12-03T06:37:37.489Z,12.43
2022-12-03T06:40:05.834Z,11.85
2022-12-03T06:42:33.467Z,11.27
2022-12-03T06:45:01.192Z,12.32
2022-12-03T06:47:28.795Z,11.70
2022-12-03T06:49:56.420Z,11.32
2022-12-03T06:52:25.433Z,12.52
2022-12-03T06:54:53.322Z,12.43
2022-12-03T06:57:21.128Z,12.20
2022-12-03T06:59:48.929Z,11.23
2022-12-03T07:02:16.568Z,11.07
2022-12-03T07:04:46.376Z,12.20
2022-12-03T07:07:14.569Z,11.25
2022-12-03T07:09:43.591Z,11.93
2022-12-03T07:12:11.434Z,11.57
2022-12-03T07:14:39.062Z,11.75
2022-12-03T07:17:06.722Z,11.93
2022-12-03T07:19:34.419Z,11.82
2022-12-03T07:22:02.110Z,10.55
2022-12-03T07:24:29.801Z,11.27
2022-12-03T07:26:58.738Z,11.32
2022-12-03T07:29:26.459Z,12.15
2022-12-03T07:31:54.196Z,11.25
2022-12-03T07:34:21.935Z,11.50
2022-12-03T07:36:49.583Z,12.13
2022-12-03T07:39:17.539Z,11.73
2022-12-03T07:41:45.237Z,11.98
2022-12-03T07:44:15.005Z,11.45
2022-12-03T07:46:42.998Z,12.65
2022-12-03T07:49:12.079Z,11.57
2022-12-03T07:51:41.868Z,12.23
2022-12-03T07:54:09.794Z,12.00
2022-12-03T07:56:37.459Z,12.20
2022-12-03T07:59:05.142Z,10.70
2022-12-03T08:01:34.157Z,11.27
2022-12-03T08:04:02.615Z,12.82
2022-12-03T08:06:30.247Z,12.63
2022-12-03T08:08:57.935Z,11.93
2022-12-03T08:11:25.640Z,11.85
2022-12-03T08:13:53.288Z,10.98
2022-12-03T08:16:22.209Z,11.88
2022-12-03T08:18:52.267Z,11.70
2022-12-03T08:21:21.959Z,11.52
2022-12-03T08:23:49.751Z,15.00
2022-12-03T08:26:23.547Z,10.75
2022-12-03T08:28:51.509Z,11.52
2022-12-03T08:31:20.898Z,12.35
2022-12-03T08:33:50.425Z,11.85
2022-12-03T08:36:22.630Z,11.63
2022-12-03T08:38:52.936Z,12.18
2022-12-03T08:41:35.656Z,10.65
2022-12-03T08:44:15.770Z,11.43
2022-12-03T08:46:43.453Z,13.80
2022-12-03T08:49:11.214Z,12.60
2022-12-03T08:51:40.212Z,12.75
2022-12-03T08:54:15.355Z,12.88
2022-12-03T08:56:43.871Z,12.30
2022-12-03T09:01:53.363Z,10.55
2022-12-03T09:04:24.157Z,11.60
2022-12-03T09:06:54.052Z,12.68
2022-12-03T09:09:21.959Z,12.05
2022-12-03T09:11:50.151Z,13.35
2022-12-03T09:14:21.147Z,14.20
2022-12-03T09:16:49.347Z,11.55
2022-12-03T09:19:17.257Z,11.82
2022-12-03T09:21:44.975Z,13.52
2022-12-03T09:24:14.143Z,11.70
2022-12-03T09:26:41.855Z,11.45
2022-12-03T09:29:12.339Z,13.63
2022-12-03T09:31:40.602Z,11.90
2022-12-03T09:34:09.150Z,12.32
2022-12-03T09:39:04.736Z,11.40
2022-12-03T09:41:33.793Z,12.68
2022-12-03T09:44:04.404Z,11.30
2022-12-03T09:46:34.574Z,11.43
2022-12-03T09:49:02.816Z,9.40
2022-12-03T09:51:33.973Z,11.35
2022-12-03T09:54:02.604Z,10.90
2022-12-03T09:56:30.350Z,8.82
2022-12-03T09:59:00.141Z,10.13
2022-12-03T10:01:30.363Z,9.55
2022-12-03T10:03:59.373Z,9.98
2022-12-03T10:06:27.199Z,8.55
2022-12-03T10:08:56.356Z,8.60
2022-12-03T10:11:26.085Z,8.80
2022-12-03T10:13:55.895Z,9.27
2022-12-03T10:16:26.131Z,9.35
2022-12-03T10:18:56.963Z,10.10
2022-12-03T10:21:26.988Z,10.43
2022-12-03T10:24:28.462Z,10.88
2022-12-03T10:26:58.428Z,9.85
2022-12-03T10:29:33.238Z,10.45
2022-12-03T10:32:05.209Z,9.38
2022-12-03T10:34:35.088Z,10.63
2022-12-03T10:37:17.311Z,11.05
2022-12-03T10:39:59.417Z,10.30
2022-12-03T10:42:28.369Z,11.00
2022-12-03T10:45:09.754Z,9.80
2022-12-03T10:47:38.950Z,10.90
2022-12-03T10:50:16.315Z,10.70
2022-12-03T10:52:44.253Z,11.18
2022-12-03T10:55:14.125Z,11.82
2022-12-03T10:57:45.616Z,10.48
2022-12-03T11:00:17.847Z,10.70
2022-12-03T11:02:54.682Z,10.52
2022-12-03T11:05:28.014Z,10.90
2022-12-03T11:07:56.537Z,10.00
2022-12-03T11:10:24.627Z,11.73
2022-12-03T11:13:29.872Z,11.57
2022-12-03T11:15:58.068Z,11.38
2022-12-03T11:19:00.304Z,12.20
2022-12-03T11:21:28.547Z,10.77
2022-12-03T11:24:16.041Z,10.75
2022-12-03T11:27:26.435Z,10.68
2022-12-03T11:30:02.190Z,10.38
2022-12-03T11:33:07.265Z,9.35
2022-12-03T11:36:15.368Z,9.60
2022-12-03T11:38:52.946Z,8.73
2022-12-03T11:41:24.380Z,9.30
2022-12-03T11:44:29.400Z,9.98
2022-12-03T11:46:59.226Z,8.85
2022-12-03T11:49:40.024Z,8.00
2022-12-03T11:52:23.968Z,6.85
2022-12-03T11:54:54.903Z,7.00
2022-12-03T11:57:30.344Z,6.90
2022-12-03T12:00:03.848Z,7.65
2022-12-03T12:02:31.704Z,7.55
2022-12-03T12:05:16.420Z,7.35
2022-12-03T12:07:47.824Z,7.70
2022-12-03T12:10:16.212Z,7.22
2022-12-03T12:12:54.369Z,8.02
2022-12-03T12:15:44.048Z,8.55
2022-12-03T12:18:40.050Z,8.88
2022-12-03T12:21:47.672Z,7.50
2022-12-03T12:24:46.775Z,8.02
2022-12-03T12:27:15.747Z,7.85
2022-12-03T12:29:45.795Z,8.55
2022-12-03T12:32:16.102Z,8.18
2022-12-03T12:34:46.359Z,7.70
2022-12-03T12:37:18.515Z,9.43
2022-12-03T12:39:47.719Z,8.10
2022-12-03T12:42:30.199Z,8.10
2022-12-03T12:45:02.217Z,8.60
2022-12-03T12:47:32.004Z,7.55
2022-12-03T12:49:59.958Z,8.50
2022-12-03T12:52:28.656Z,7.97
2022-12-03T12:55:03.082Z,8.68
2022-12-03T12:57:34.756Z,7.57
2022-12-03T13:00:03.889Z,8.68
2022-12-03T13:02:45.655Z,8.27
2022-12-03T13:05:15.012Z,8.35
2022-12-03T13:07:43.951Z,9.15
2022-12-03T13:10:32.971Z,8.52
2022-12-03T13:13:03.884Z,8.90
2022-12-03T13:15:43.427Z,8.45
2022-12-03T13:18:23.188Z,7.88
2022-12-03T13:20:50.851Z,8.63
2022-12-03T13:23:28.275Z,9.13
2022-12-03T13:26:04.013Z,9.68
2022-12-03T13:28:37.069Z,8.48
2022-12-03T13:31:22.269Z,11.13
2022-12-03T13:33:50.315Z,16.15
2022-12-03T13:36:20.767Z,23.08
2022-12-03T13:38:49.081Z,23.50
2022-12-03T13:41:38.636Z,18.50
2022-12-03T13:44:16.549Z,19.05
2022-12-03T13:46:44.426Z,14.18
2022-12-03T13:49:19.597Z,12.73
2022-12-03T13:51:47.499Z,11.38
2022-12-03T13:54:20.660Z,11.45
2022-12-03T13:56:50.256Z,12.32
2022-12-03T13:59:22.985Z,13.88
2022-12-03T14:01:53.906Z,18.70
2022-12-03T14:04:21.541Z,19.25
2022-12-03T14:06:49.220Z,17.83
2022-12-03T14:09:16.869Z,16.30
2022-12-03T14:12:01.962Z,15.00
2022-12-03T14:14:30.918Z,13.55
2022-12-03T14:17:00.188Z,12.98
2022-12-03T14:19:28.206Z,13.20
2022-12-03T14:21:55.844Z,14.77
2022-12-03T14:24:23.620Z,12.73
2022-12-03T14:26:51.293Z,12.77
2022-12-03T14:29:19.023Z,11.52
2022-12-03T14:31:48.030Z,12.35
2022-12-03T14:34:15.714Z,11.32
2022-12-03T14:36:44.161Z,11.07
2022-12-03T14:39:11.867Z,10.93
2022-12-03T14:41:53.463Z,9.85
2022-12-03T14:44:21.847Z,8.20
2022-12-03T14:46:56.575Z,10.43
2022-12-03T14:51:52.493Z,10.18
2022-12-03T14:54:20.178Z,11.63
2022-12-03T14:56:47.838Z,13.25
2022-12-03T14:59:15.503Z,13.20
2022-12-03T15:01:43.206Z,11.93
2022-12-03T15:04:12.325Z,10.73
2022-12-03T15:06:40.001Z,10.05
2022-12-03T15:09:07.831Z,8.75
2022-12-03T15:11:35.686Z,9.30
2022-12-03T15:14:03.319Z,8.60
2022-12-03T15:16:30.955Z,9.18
2022-12-03T15:18:58.612Z,8.57
2022-12-03T15:21:28.511Z,8.93
2022-12-03T15:23:56.228Z,8.15
2022-12-03T15:26:23.909Z,10.77
2022-12-03T15:28:51.595Z,10.15
2022-12-03T15:31:19.281Z,12.68
2022-12-03T15:33:47.005Z,13.18
2022-12-03T15:36:14.827Z,13.32
2022-12-03T15:38:43.836Z,13.05
2022-12-03T15:41:25.435Z,13.18
2022-12-03T15:43:53.234Z,12.85
2022-12-03T15:46:21.362Z,12.18
2022-12-03T15:48:49.314Z,12.25
2022-12-03T15:51:17.607Z,14.15
2022-12-03T15:53:46.817Z,13.30
2022-12-03T15:56:14.853Z,13.90
2022-12-03T15:58:42.763Z,13.65
2022-12-03T16:01:10.589Z,13.77
2022-12-03T16:03:38.263Z,13.85
2022-12-03T16:06:06.500Z,13.13
2022-12-03T16:08:34.173Z,14.27
2022-12-03T16:11:03.164Z,13.52
2022-12-03T16:13:30.868Z,13.63
2022-12-03T16:15:58.548Z,15.48
2022-12-03T16:18:26.296Z,14.48
2022-12-03T16:20:53.951Z,14.75
2022-12-03T16:23:21.664Z,13.52
2022-12-03T16:25:49.374Z,13.48
2022-12-03T16:28:18.359Z,13.65
2022-12-03T16:30:46.033Z,12.55
2022-12-03T16:33:13.683Z,13.45
2022-12-03T16:35:41.323Z,13.45
2022-12-03T16:38:08.991Z,13.10
2022-12-03T16:40:36.694Z,12.77
2022-12-03T16:43:04.868Z,14.23
2022-12-03T16:46:02.305Z,12.55
2022-12-03T16:48:30.672Z,12.13
2022-12-03T16:50:58.315Z,13.55
2022-12-03T16:53:25.964Z,10.32
2022-12-03T16:55:53.638Z,13.10
2022-12-03T16:58:21.496Z,13.18
2022-12-03T17:00:51.124Z,14.27
2022-12-03T17:03:19.005Z,14.65
2022-12-03T17:05:47.057Z,12.70
2022-12-03T17:08:15.810Z,13.25
2022-12-03T17:10:43.808Z,12.50
2022-12-03T17:13:11.813Z,13.50
2022-12-03T17:15:40.411Z,13.20
2022-12-03T17:18:10.396Z,12.95
2022-12-03T17:20:38.537Z,14.02
2022-12-03T17:23:06.231Z,12.75
2022-12-03T17:25:34.864Z,13.63
2022-12-03T17:30:30.004Z,14.02
2022-12-03T17:32:57.728Z,12.10
2022-12-03T17:35:28.502Z,12.25
2022-12-03T17:37:56.412Z,14.57
2022-12-03T17:40:24.166Z,13.10
2022-12-03T17:42:51.841Z,14.50
2022-12-03T17:45:19.504Z,14.25
2022-12-03T17:47:47.133Z,14.32
2022-12-03T17:50:14.808Z,13.93
2022-12-03T17:52:43.837Z,13.15
2022-12-03T17:55:17.828Z,12.30
2022-12-03T17:57:49.139Z,13.48
2022-12-03T18:00:17.252Z,14.10
2022-12-03T18:02:44.872Z,14.43
2022-12-03T18:05:13.457Z,13.90
2022-12-03T18:10:10.549Z,12.57
2022-12-03T18:12:38.429Z,11.38
2022-12-03T18:15:06.740Z,13.85
2022-12-03T18:17:34.381Z,11.73
2022-12-03T18:20:02.215Z,12.88
2022-12-03T18:22:29.961Z,13.07
2022-12-03T18:24:58.028Z,11.73
2022-12-03T18:27:27.008Z,13.15
2022-12-03T18:29:54.812Z,13.02
2022-12-03T18:32:30.220Z,12.38
2022-12-03T18:34:58.690Z,12.05
2022-12-03T18:37:28.376Z,14.57
2022-12-03T18:39:57.568Z,11.77
2022-12-03T18:42:27.288Z,13.70
2022-12-03T18:44:56.518Z,14.40
2022-12-03T18:47:25.930Z,12.43
2022-12-03T18:49:55.355Z,14.75
2022-12-03T18:52:24.948Z,14.00
2022-12-03T18:54:52.788Z,14.38
2022-12-03T18:57:20.436Z,12.55
2022-12-03T18:59:49.538Z,13.73
2022-12-03T19:02:53.785Z,12.25
2022-12-03T19:05:08.069Z,14.48
2022-12-03T19:07:35.884Z,12.75
2022-12-03T19:10:03.825Z,13.95
2022-12-03T19:12:31.776Z,13.57
2022-12-03T19:15:00.772Z,13.60
2022-12-03T19:17:28.607Z,12.27
2022-12-03T19:19:56.634Z,12.57
2022-12-03T19:22:24.854Z,12.43
2022-12-03T19:24:52.513Z,14.20
2022-12-03T19:27:20.440Z,12.57
2022-12-03T19:29:49.408Z,13.32
2022-12-03T19:32:18.527Z,13.38
2022-12-03T19:34:46.156Z,12.07
2022-12-03T19:37:13.836Z,12.60
2022-12-03T19:39:43.059Z,11.95
2022-12-03T19:42:11.006Z,12.68
2022-12-03T19:44:39.054Z,13.43
2022-12-03T19:47:06.757Z,13.00
2022-12-03T19:49:35.775Z,13.43
2022-12-03T19:52:03.475Z,12.98
2022-12-03T19:54:31.137Z,14.43
2022-12-03T19:56:58.828Z,11.43
2022-12-03T19:59:26.525Z,12.15
2022-12-03T20:01:54.314Z,12.55
2022-12-03T20:04:22.138Z,13.27
2022-12-03T20:06:51.136Z,12.75
2022-12-03T20:09:20.617Z,12.98
2022-12-03T20:11:51.776Z,11.55
2022-12-03T20:14:19.611Z,12.30
2022-12-03T20:16:47.653Z,13.55
2022-12-03T20:19:17.861Z,12.88
2022-12-03T20:21:45.661Z,12.90
2022-12-03T20:24:17.176Z,13.65
2022-12-03T20:26:45.048Z,13.07
2022-12-03T20:29:14.353Z,12.18
2022-12-03T20:31:42.087Z,13.38
2022-12-03T20:34:11.191Z,13.57
2022-12-03T20:36:39.855Z,12.13
2022-12-03T20:39:08.869Z,12.57
2022-12-03T20:41:38.818Z,12.20
2022-12-03T20:44:07.887Z,13.35
2022-12-03T20:46:36.225Z,12.95
2022-12-03T20:49:04.647Z,11.52
2022-12-03T20:51:32.727Z,12.25
2022-12-03T20:54:02.056Z,12.70
2022-12-03T20:56:33.784Z,12.68
2022-12-03T20:59:04.793Z,12.52
2022-12-03T21:01:32.762Z,13.00
2022-12-03T21:04:00.624Z,12.00
2022-12-03T21:06:29.953Z,11.45
2022-12-03T21:08:59.377Z,12.35
2022-12-03T21:11:30.716Z,12.25
2022-12-03T21:13:59.530Z,12.75
2022-12-03T21:17:05.865Z,12.23
2022-12-03T21:19:21.852Z,14.30
2022-12-03T21:21:49.663Z,12.32
2022-12-03T21:24:17.346Z,11.55
2022-12-03T21:26:45.013Z,12.82
2022-12-03T21:29:12.954Z,12.02
2022-12-03T21:31:41.975Z,13.13
2022-12-03T21:34:09.610Z,12.85
2022-12-03T21:36:40.057Z,13.38
2022-12-03T21:39:08.157Z,13.50
2022-12-03T21:41:36.084Z,12.63
2022-12-03T21:44:03.964Z,12.75
2022-12-03T21:47:11.640Z,13.00
2022-12-03T21:49:20.831Z,13.80
2022-12-03T21:51:48.475Z,12.30
2022-12-03T21:54:16.235Z,14.15
2022-12-03T21:56:43.863Z,13.05
2022-12-03T21:59:11.572Z,12.93
2022-12-03T22:01:42.918Z,13.88
2022-12-03T22:04:14.553Z,12.85
2022-12-03T22:06:43.622Z,13.98
2022-12-03T22:09:11.280Z,12.93
2022-12-03T22:11:38.931Z,13.48
2022-12-03T22:14:08.202Z,13.77
2022-12-03T22:16:36.037Z,13.50
2022-12-03T22:19:03.761Z,14.68
2022-12-03T22:21:31.455Z,13.30
2022-12-03T22:24:00.457Z,13.85
2022-12-03T22:26:28.139Z,12.23
2022-12-03T22:28:55.790Z,11.45
2022-12-03T22:31:23.469Z,13.95
2022-12-03T22:33:51.145Z,12.88
2022-12-03T22:36:21.611Z,13.75
2022-12-03T22:38:50.368Z,14.48
2022-12-03T22:41:20.982Z,13.75
2022-12-03T22:43:49.614Z,13.02
2022-12-03T22:46:18.335Z,12.75
2022-12-03T22:48:47.608Z,13.50
2022-12-03T22:51:17.523Z,14.60
2022-12-03T22:53:45.208Z,14.38
2022-12-03T22:56:13.252Z,12.00
2022-12-03T22:58:42.275Z,14.40
2022-12-03T23:01:10.331Z,12.38
2022-12-03T23:03:38.154Z,13.77
2022-12-03T23:06:11.231Z,14.38
2022-12-03T23:08:39.030Z,14.88
2022-12-03T23:11:07.039Z,13.70
2022-12-03T23:13:35.231Z,12.68
2022-12-03T23:16:04.801Z,14.85
2022-12-03T23:18:32.870Z,14.68
2022-12-03T23:21:00.905Z,12.77
2022-12-03T23:23:31.123Z,14.23
2022-12-03T23:25:59.879Z,14.90
2022-12-03T23:28:28.478Z,14.90
2022-12-03T23:33:26.095Z,13.65
2022-12-03T23:35:53.940Z,14.60
2022-12-03T23:38:21.790Z,14.18
2022-12-03T23:40:49.566Z,12.43
2022-12-03T23:43:17.413Z,13.77
2022-12-03T23:45:46.870Z,15.10
2022-12-03T23:48:14.494Z,15.93
2022-12-03T23:50:43.518Z,14.52
2022-12-03T23:53:11.150Z,12.68
2022-12-03T23:55:40.814Z,14.65
2022-12-03T23:58:08.689Z,14.68
